SBUL/UDI METAR and TAF weather

Enter ICAO airport designator
Station Type Date Time Source
SBUL METAR 2021/08/01 17:00 UTC NOAA

SBUL 011700Z 01004KT 340V130 9999 FEW040 25/09 Q1026


Station Type Date Time Source
SBUL Decoded METAR 2021/08/01 17:00 UTC NOAA

Uberlandia , Brazil (SBUL) 18-53S 048-14W
Aug 01, 2021 - 01:00 PM EDT / 2021.08.01 1700 UTC
Wind: from the N (010 degrees) at 5 MPH (4 KT) (direction variable):0
Visibility: greater than 7 mile(s):0
Sky conditions: mostly clear
Temperature: 77 F (25 C)
Dew Point: 48 F (9 C)
Relative Humidity: 36%
Pressure (altimeter): 30.30 in. Hg (1026 hPa)
ob: SBUL 011700Z 01004KT 340V130 9999 FEW040 25/09 Q1026
cycle: 17

Station Type Date Time Source
SBUL TAF 2021/08/01 12:27 UTC NOAA

TAF SBUL 010800Z 0112/0124 06010KT CAVOK TN18/0112Z TX26/0117Z
BECMG 0115/0117 VRB04KT
BECMG 0120/0122 12005KT
RMK PGH

Example: see airport list